Cartersville, Georgia
Current Conditions -  °F | °C
As of 6:53 PM on Sunday 23 Nov 2014 (Local Time) from KVPC Reporting Station
Overcast Overcast  
Wind Chill: 56°   Ceiling: 4200
Heat Index: 56°   Visibility: 10mi
Dew Point: 53°   Wind: 8mph
Humidity: 90%   Direction: 130°SE
Pressure: 29.67"   Gusts: NA
Location:  34.17°N, 84.79°W
Report Text: KVPC 232353Z AUTO 13007KT 10SM FEW030 BKN042 OVC055 13/12 A2967 RMK AO2 SLP041 60098 T01330117 10133 20106 55006
Loading
Personal Weather Stations






























Interactive Weather Map New forecast layout! Learn more

10-Day Weather Forecast

Advertisements
Track Severe Weather on mobile